Data for 08/18/2009

Time Sea-Level Adjusted Pressure Absolute Pressure Temperature Relative Humidity Dew Point   
(mb) (inHg) (mb) (inHg) (C) (F) (%) (C) (F)
00:05 1021 30.15 850 25.1 10.9 51.6 65 4.6 40.3
00:10 1021 30.15 850 25.1 10.9 51.6 65 4.6 40.3
00:15 1021 30.15 850 25.1 10.7 51.3 65 4.6 40.2
00:20 1021 30.15 851 25.13 10.7 51.3 65 4.5 40
00:25 1021 30.15 851 25.13 10.9 51.7 65 4.6 40.2
00:30 1021 30.15 851 25.13 11 51.8 63 4.3 39.8
00:35 1021 30.15 850 25.1 11.1 52.1 62 4.2 39.5
00:40 1021 30.15 850 25.1 11.2 52.2 62 4.3 39.7
00:45 1021 30.15 851 25.13 11.2 52.2 63 4.4 39.9
00:50 1021 30.15 850 25.1 10.9 51.7 63 4.3 39.8
00:55 1021 30.15 850 25.1 10.8 51.4 65 4.6 40.2
01:00 1021 30.15 850 25.1 10.5 50.9 67 4.6 40.3
01:05 1021 30.15 850 25.1 10 50 68 4.4 39.9
01:10 1021 30.15 850 25.1 10 49.9 67 4.2 39.5
01:15 1021 30.15 850 25.1 10 50.1 66 4.1 39.4
01:20 1021 30.15 850 25.1 10.1 50.3 65 4 39.2
01:25 1021 30.15 850 25.1 9.9 49.9 70 4.7 40.5
01:30 1021 30.15 850 25.1 9.3 48.7 70 4.2 39.6
01:35 1021 30.15 850 25.1 9.3 48.7 70 4.1 39.4
01:40 1021 30.15 850 25.1 9.4 48.9 69 4 39.3
01:45 1021 30.15 850 25.1 9.5 49.1 69 4.1 39.3
01:50 1021 30.15 850 25.1 9.6 49.2 68 4 39.1
01:55 1021 30.15 850 25.1 9.5 49.1 67 3.7 38.7
02:00 1021 30.15 850 25.1 9.4 48.8 69 4 39.1
02:05 1021 30.15 850 25.1 9.1 48.4 69 3.6 38.6
02:10 1021 30.15 850 25.1 9.4 48.8 67 3.5 38.3
02:15 1021 30.15 850 25.1 9.5 49.2 66 3.5 38.2
02:20 1021 30.15 850 25.1 9.6 49.2 67 3.7 38.6
02:25 1021 30.15 850 25.1 9.5 49 66 3.6 38.4
02:30 1021 30.15 850 25.1 9.5 49.2 66 3.6 38.5
02:35 1021 30.15 850 25.1 9.3 48.8 68 3.7 38.7
02:40 1021 30.15 850 25.1 9.4 48.8 65 3.1 37.6
02:45 1021 30.15 850 25.1 9.4 48.9 65 3.2 37.7
02:50 1021 30.15 850 25.1 9.7 49.4 65 3.4 38.2
02:55 1021 30.15 850 25.1 9.6 49.3 64 3.1 37.5
03:00 1021 30.15 850 25.1 9.9 49.9 62 3.1 37.5
03:05 1021 30.15 850 25.1 10.1 50.2 62 3.1 37.6
03:10 1021 30.15 850 25.1 10.3 50.5 61 3 37.5
03:15 1021 30.15 850 25.1 10.3 50.5 61 3.2 37.7
03:20 1021 30.15 850 25.1 10.3 50.5 62 3.5 38.2
03:25 1021 30.15 850 25.1 10 50 62 3.2 37.7
03:30 1021 30.15 850 25.1 10 50.1 64 3.5 38.3
03:35 1021 30.15 850 25.1 9.8 49.7 64 3.5 38.2
03:40 1021 30.15 850 25.1 9.6 49.2 66 3.7 38.6
03:45 1021 30.15 850 25.1 9.4 49 67 3.6 38.4
03:50 1021 30.15 850 25.1 9.4 48.9 67 3.7 38.6
03:55 1021 30.15 850 25.1 9.2 48.6 68 3.7 38.6
04:00 1021 30.15 850 25.1 9.2 48.6 68 3.6 38.5
04:05 1021 30.15 850 25.1 9.3 48.8 68 3.7 38.6
04:10 1021 30.15 850 25.1 9.3 48.7 68 3.7 38.7
04:15 1021 30.15 850 25.1 9.3 48.8 68 3.7 38.7
04:20 1021 30.15 850 25.1 9.4 48.9 68 3.8 38.9
04:25 1021 30.15 850 25.1 9.3 48.8 69 3.9 39.1
04:30 1021 30.15 850 25.1 9.2 48.6 69 3.9 39
04:35 1021 30.15 850 25.1 9.2 48.6 69 3.8 38.8
04:40 1021 30.15 850 25.1 9.2 48.6 69 3.9 39
04:45 1021 30.15 850 25.1 9.2 48.5 70 4 39.1
04:50 1021 30.15 850 25.1 9.1 48.3 70 3.8 38.9
04:55 1021 30.15 850 25.1 9.2 48.5 69 3.9 38.9
05:00 1021 30.15 850 25.1 9.2 48.6 69 3.8 38.8
05:05 1021 30.15 850 25.1 9.2 48.5 69 3.8 38.9
05:10 1021 30.15 850 25.1 9.1 48.4 69 3.8 38.8
05:15 1021 30.15 850 25.1 9.2 48.5 69 3.8 38.9
05:20 1021 30.15 850 25.1 9.1 48.4 69 3.8 38.8
05:25 1021 30.15 850 25.1 9.2 48.5 69 3.9 39
05:30 1021 30.15 850 25.1 9.2 48.5 69 3.9 39
05:35 1021 30.15 850 25.1 9.2 48.5 70 4.1 39.3
05:40 1021 30.15 850 25.1 9.2 48.6 69 3.9 39.1
05:45 1021 30.15 850 25.1 9.3 48.7 71 4.2 39.6
05:50 1021 30.15 850 25.1 9.1 48.3 74 4.6 40.3
05:55 1021 30.15 850 25.1 8.8 47.8 73 4.2 39.6
06:00 1021 30.15 850 25.1 8.6 47.5 74 4.4 39.9
06:05 1021 30.15 850 25.1 8.6 47.4 74 4.2 39.6
06:10 1021 30.15 850 25.1 8.5 47.4 73 4.1 39.3
06:15 1021 30.15 850 25.1 8.6 47.5 72 3.9 39
06:20 1021 30.15 850 25.1 8.7 47.7 73 4.1 39.4
06:25 1021 30.15 850 25.1 8.8 47.8 73 4.2 39.6
06:30 1021 30.15 850 25.1 8.9 48.1 72 4.2 39.6
06:35 1021 30.15 850 25.1 9.1 48.3 72 4.2 39.6
06:40 1021 30.15 850 25.1 9.1 48.4 72 4.4 39.8
06:45 1021 30.15 850 25.1 9.2 48.5 72 4.4 39.9
06:50 1021 30.15 850 25.1 9.2 48.6 73 4.6 40.3
06:55 1021 30.15 850 25.1 9.2 48.5 73 4.6 40.4
07:00 1021 30.15 850 25.1 9.3 48.7 72 4.5 40.2
07:05 1021 30.15 850 25.1 9.6 49.2 71 4.5 40.1
07:10 1021 30.15 850 25.1 9.9 49.8 69 4.4 40
07:15 1021 30.15 850 25.1 10 50.1 69 4.6 40.2
07:20 1021 30.15 850 25.1 10.2 50.3 68 4.7 40.4
07:25 1021 30.15 850 25.1 10.4 50.6 67 4.6 40.3
07:30 1021 30.15 850 25.1 10.6 51.1 66 4.7 40.4
07:35 1021 30.15 850 25.1 10.7 51.3 66 4.7 40.5
07:40 1021 30.15 850 25.1 10.9 51.6 66 4.8 40.6
07:45 1021 30.15 850 25.1 11 51.9 66 4.9 40.8
07:50 1021 30.15 850 25.1 11.1 51.9 66 4.9 40.8
07:55 1021 30.15 850 25.1 11.2 52.2 66 5.1 41.2
08:00 1021 30.15 850 25.1 11.4 52.5 64 4.9 40.9
08:05 1021 30.15 850 25.1 11.6 52.9 64 5.1 41.2
08:10 1021 30.15 850 25.1 11.8 53.2 63 5.1 41.1
08:15 1021 30.15 850 25.1 11.9 53.4 64 5.2 41.4
08:20 1021 30.15 850 25.1 12.2 53.9 63 5.3 41.6
08:25 1021 30.15 850 25.1 12.4 54.3 61 5.1 41.2
08:30 1021 30.15 850 25.1 12.5 54.5 62 5.5 41.9
08:35 1021 30.15 850 25.1 12.5 54.6 62 5.5 41.9
08:40 1021 30.15 850 25.1 12.8 55 60 5.3 41.5
08:45 1021 30.15 850 25.1 13.2 55.8 60 5.7 42.2
08:50 1021 30.15 850 25.1 13.4 56.1 59 5.5 41.9
08:55 1021 30.15 850 25.1 13.3 56 60 5.8 42.5
09:00 1021 30.15 850 25.1 13.3 55.9 61 6 42.8
09:05 1021 30.15 850 25.1 13.6 56.6 61 6.3 43.3
09:10 1021 30.15 850 25.1 14.1 57.3 62 7 44.6
09:15 1021 30.15 850 25.1 14.2 57.5 62 7 44.6
09:20 1021 30.15 850 25.1 14.2 57.6 66 8.1 46.6
09:25 1021 30.15 850 25.1 14.3 57.8 63 7.4 45.3
09:30 1021 30.15 850 25.1 15.2 59.4 59 7.3 45.2
09:35 1021 30.15 850 25.1 15.9 60.5 56 7.1 44.8
09:40 1021 30.15 850 25.1 16.6 61.8 54 7.4 45.3
09:45 1021 30.15 850 25.1 16 60.8 55 7.1 44.7
09:50 1021 30.15 850 25.1 15.9 60.6 52 6.2 43.1
09:55 1021 30.15 850 25.1 16.7 62.1 45 5 41
10:00 1020 30.12 850 25.1 17.7 63.9 38 3.2 37.8
10:05 1020 30.12 850 25.1 17.9 64.2 38 3.5 38.2
10:10 1020 30.12 850 25.1 16.7 62.1 42 3.8 38.9
10:15 1020 30.12 849 25.07 16.6 61.8 44 4.3 39.7
10:20 1020 30.12 849 25.07 16.8 62.3 42 4.1 39.4
10:25 1020 30.12 849 25.07 16.6 61.9 41 3.6 38.4
10:30 1020 30.12 849 25.07 16.3 61.4 44 4.1 39.4
10:35 1020 30.12 849 25.07 16.1 60.9 45 4.3 39.7
10:40 1020 30.12 849 25.07 15.9 60.6 46 4.3 39.7
10:45 1020 30.12 849 25.07 16.1 60.9 45 4.1 39.4
10:50 1020 30.12 849 25.07 16.4 61.5 43 4 39.2
10:55 1020 30.12 849 25.07 16.6 61.9 42 3.9 39
11:00 1020 30.12 849 25.07 16.5 61.8 43 4.1 39.3
11:05 1020 30.12 849 25.07 17 62.6 44 4.7 40.5
11:10 1020 30.12 849 25.07 17.4 63.3 44 5.1 41.2
11:15 1020 30.12 849 25.07 17.3 63.1 45 5.5 41.8
11:20 1020 30.12 849 25.07 17.4 63.3 44 5.2 41.4
11:25 1020 30.12 849 25.07 17.7 63.8 43 5.2 41.3
11:30 1020 30.12 849 25.07 17.9 64.1 43 5.1 41.2
11:35 1020 30.12 849 25.07 18.5 65.2 39 4.2 39.6
11:40 1020 30.12 849 25.07 19.5 67.1 36 4.3 39.7
11:45 1020 30.12 849 25.07 19.3 66.7 36 3.8 38.8
11:50 1020 30.12 849 25.07 19.3 66.7 35 3.7 38.7
11:55 1020 30.12 849 25.07 20 67.9 33 3.6 38.4
12:00 1020 30.12 849 25.07 20.7 69.2 34 4.3 39.7
12:05 1020 30.12 849 25.07 20.4 68.7 34 4.3 39.8
12:10 1020 30.12 849 25.07 20.1 68.2 33 3.6 38.5
12:15 1020 30.12 849 25.07 20.4 68.6 34 4.2 39.6
12:20 1020 30.12 849 25.07 20.7 69.2 36 5.1 41.2
12:25 1020 30.12 849 25.07 20.5 68.8 35 4.5 40.1
12:30 1020 30.12 849 25.07 19.9 67.8 36 4.5 40.1
12:35 1019 30.09 849 25.07 19.4 66.9 38 4.9 40.8
12:40 1019 30.09 849 25.07 19.5 67.1 37 4.6 40.2
12:45 1019 30.09 849 25.07 19.7 67.4 37 4.6 40.2
12:50 1019 30.09 848 25.04 19.6 67.3 39 5.3 41.5
12:55 1019 30.09 849 25.07 19.5 67.1 38 5.2 41.3
13:00 1019 30.09 848 25.04 19.6 67.2 39 5.3 41.6
13:05 1019 30.09 848 25.04 19.8 67.7 37 5 41
13:10 1019 30.09 848 25.04 20.1 68.1 38 5.4 41.7
13:15 1019 30.09 848 25.04 20.6 69 36 5 41
13:20 1019 30.09 848 25.04 21.5 70.6 33 4.5 40.2
13:25 1019 30.09 848 25.04 22.4 72.2 32 5.2 41.4
13:30 1019 30.09 848 25.04 21.9 71.5 32 4.8 40.6
13:35 1019 30.09 848 25.04 21.2 70.1 32 4.2 39.6
13:40 1019 30.09 848 25.04 21.4 70.6 32 4.4 40
13:45 1019 30.09 848 25.04 20.8 69.4 33 3.9 39
13:50 1019 30.09 848 25.04 21.5 70.8 30 3.2 37.8
13:55 1019 30.09 848 25.04 22 71.6 28 3 37.4
14:00 1019 30.09 848 25.04 22.8 73.1 29 4.2 39.5
14:05 1019 30.09 848 25.04 22.7 72.8 28 3.4 38.2
14:10 1018 30.06 848 25.04 22.2 71.9 31 4.2 39.6
14:15 1018 30.06 848 25.04 22.6 72.6 30 4.2 39.6
14:20 1018 30.06 848 25.04 22.3 72.1 29 3.5 38.4
14:25 1018 30.06 848 25.04 22.5 72.5 29 4 39.1
14:30 1018 30.06 847 25.01 22.7 72.9 28 3.5 38.2
14:35 1018 30.06 847 25.01 22.7 72.9 28 3.7 38.6
14:40 1018 30.06 847 25.01 22.7 72.9 28 3.7 38.7
14:45 1018 30.06 847 25.01 22.4 72.4 29 3.5 38.3
14:50 1018 30.06 847 25.01 22.5 72.4 29 3.6 38.6
14:55 1018 30.06 847 25.01 22.5 72.5 28 3.2 37.8
15:00 1018 30.06 847 25.01 22.8 73.1 29 4 39.2
15:05 1018 30.06 847 25.01 23.3 74 28 4.2 39.6
15:10 1018 30.06 847 25.01 23.1 73.6 29 4.3 39.7
15:15 1018 30.06 847 25.01 23.2 73.7 29 4.2 39.6
15:20 1018 30.06 847 25.01 23.3 73.9 28 4.1 39.4
15:25 1018 30.06 847 25.01 23.5 74.3 28 4.4 39.8
15:30 1018 30.06 847 25.01 23.2 73.7 29 4.5 40
15:35 1018 30.06 847 25.01 23.1 73.5 28 4 39.3
15:40 1018 30.06 847 25.01 23.5 74.3 29 4.5 40.2
15:45 1018 30.06 847 25.01 23.3 74 30 4.9 40.8
15:50 1018 30.06 847 25.01 23.4 74.2 28 4.1 39.4
15:55 1018 30.06 847 25.01 23.9 75.1 28 4.4 39.8
16:00 1018 30.06 847 25.01 24 75.2 28 4.7 40.4
16:05 1018 30.06 847 25.01 24.3 75.8 28 4.7 40.5
16:10 1018 30.06 847 25.01 24.2 75.5 28 4.7 40.4
16:15 1018 30.06 847 25.01 23.8 74.8 29 4.7 40.4
16:20 1018 30.06 847 25.01 24.1 75.4 28 4.6 40.4
16:25 1018 30.06 847 25.01 24.3 75.7 27 4.5 40
16:30 1017 30.03 847 25.01 24.5 76.1 29 5.4 41.7
16:35 1017 30.03 847 25.01 24.7 76.4 27 4.7 40.4
16:40 1017 30.03 847 25.01 24.8 76.7 28 5.4 41.7
16:45 1017 30.03 846 24.98 24.5 76.1 28 5.3 41.5
16:50 1017 30.03 846 24.98 24.5 76.1 30 5.9 42.7
16:55 1017 30.03 846 24.98 24.5 76.1 28 4.9 40.8
17:00 1017 30.03 846 24.98 24.6 76.3 29 5.6 42.1
17:05 1017 30.03 846 24.98 24.8 76.7 28 5.4 41.7
17:10 1017 30.03 846 24.98 23.8 74.8 30 5.4 41.7
17:15 1017 30.03 846 24.98 23.1 73.6 31 5.2 41.4
17:20 1017 30.03 846 24.98 23 73.5 31 5.3 41.6
17:25 1017 30.03 846 24.98 22.9 73.3 31 5.2 41.3
17:30 1017 30.03 846 24.98 22.8 73.1 32 5.3 41.5
17:35 1017 30.03 846 24.98 23.1 73.6 32 5.7 42.2
17:40 1017 30.03 846 24.98 23.4 74.1 32 6 42.7
17:45 1017 30.03 846 24.98 23.2 73.8 32 5.8 42.5
17:50 1017 30.03 846 24.98 23.2 73.8 32 5.9 42.6
17:55 1017 30.03 846 24.98 22.8 73 34 6.1 43.1
18:00 1017 30.03 846 24.98 22.5 72.5 36 6.9 44.4
18:05 1017 30.03 846 24.98 22.2 71.9 35 6.4 43.5
18:10 1017 30.03 846 24.98 22.1 71.8 34 5.5 42
18:15 1017 30.03 846 24.98 22.2 71.9 34 5.9 42.6
18:20 1017 30.03 846 24.98 22.3 72.1 35 6.4 43.4
18:25 1017 30.03 846 24.98 22.2 72 36 6.5 43.8
18:30 1017 30.03 846 24.98 22.3 72.1 37 7.3 45.1
18:35 1016 30 846 24.98 22.2 71.9 37 7 44.5
18:40 1016 30 846 24.98 22.2 71.9 38 7.2 45
18:45 1016 30 846 24.98 22.3 72.2 38 7.4 45.3
18:50 1016 30 846 24.98 22.6 72.7 39 8 46.4
18:55 1016 30 845 24.95 22.9 73.1 33 5.9 42.6
19:00 1016 30 845 24.95 23.1 73.5 33 6.3 43.3
19:05 1016 30 845 24.95 23.1 73.5 36 7.5 45.5
19:10 1016 30 845 24.95 23 73.4 37 7.9 46.3
19:15 1016 30 845 24.95 22.9 73.2 36 7.2 44.9
19:20 1016 30 845 24.95 22.7 72.8 36 7 44.7
19:25 1016 30 845 24.95 22.4 72.3 37 7 44.6
19:30 1016 30 845 24.95 22.1 71.8 39 7.5 45.6
19:35 1016 30 845 24.95 22 71.6 40 8 46.3
19:40 1016 30 845 24.95 21.9 71.4 40 7.8 46
19:45 1016 30 845 24.95 21.7 71.1 40 7.7 45.9
19:50 1016 30 845 24.95 21.6 70.8 40 7.5 45.5
19:55 1016 30 845 24.95 21.5 70.7 40 7.5 45.5
20:00 1016 30 845 24.95 21.3 70.4 43 8.3 46.9
20:05 1016 30 845 24.95 21.1 70 43 8.1 46.7
20:10 1016 30 845 24.95 20.9 69.6 43 8 46.4
20:15 1016 30 845 24.95 20.9 69.5 42 7.8 46
20:20 1016 30 845 24.95 20.8 69.5 42 7.6 45.7
20:25 1016 30 845 24.95 20.9 69.5 43 7.8 46.1
20:30 1016 30 845 24.95 20.8 69.5 43 8 46.5
20:35 1016 30 845 24.95 20.7 69.3 44 8.1 46.6
20:40 1016 30 845 24.95 20.5 69 45 8.4 47.1
20:45 1016 30 846 24.98 20.4 68.7 45 8.3 46.9
20:50 1016 30 846 24.98 20.3 68.6 45 8.1 46.6
20:55 1017 30.03 846 24.98 20 68 49 9.1 48.3
21:00 1017 30.03 846 24.98 19.5 67 49 8.5 47.2
21:05 1017 30.03 846 24.98 19.4 66.9 48 8.3 46.9
21:10 1017 30.03 846 24.98 19.4 66.9 48 8.1 46.7
21:15 1017 30.03 846 24.98 19.4 66.9 48 8.2 46.7
21:20 1017 30.03 846 24.98 19.5 67.1 47 8 46.5
21:25 1017 30.03 846 24.98 19.5 67.1 48 8.3 47
21:30 1017 30.03 846 24.98 19.4 66.9 48 8.3 46.9
21:35 1017 30.03 846 24.98 19.3 66.7 49 8.3 46.9
21:40 1017 30.03 847 25.01 19.1 66.4 50 8.5 47.3
21:45 1017 30.03 847 25.01 19 66.1 50 8.5 47.4
21:50 1017 30.03 847 25.01 18.9 66.1 50 8.5 47.3
21:55 1017 30.03 847 25.01 18.8 65.9 52 8.9 48
22:00 1017 30.03 847 25.01 18.6 65.5 51 8.5 47.3
22:05 1017 30.03 847 25.01 18.6 65.5 51 8.5 47.3
22:10 1017 30.03 847 25.01 18.6 65.6 52 8.7 47.7
22:15 1017 30.03 847 25.01 18.6 65.4 52 8.7 47.7
22:20 1017 30.03 847 25.01 18.6 65.5 52 8.6 47.4
22:25 1017 30.03 847 25.01 18.5 65.4 52 8.6 47.5
22:30 1017 30.03 847 25.01 18.5 65.3 52 8.7 47.6
22:35 1017 30.03 847 25.01 18.3 64.9 54 9 48.2
22:40 1017 30.03 847 25.01 17.9 64.3 55 8.8 47.9
22:45 1017 30.03 847 25.01 17.7 63.9 55 8.8 47.8
22:50 1017 30.03 847 25.01 17.7 63.8 55 8.7 47.6
22:55 1017 30.03 847 25.01 17.7 63.8 53 8.2 46.8
23:00 1018 30.06 847 25.01 17.8 64 54 8.5 47.3
23:05 1018 30.06 847 25.01 17.7 63.9 54 8.3 47
23:10 1018 30.06 847 25.01 17.7 63.8 53 8.2 46.8
23:15 1018 30.06 847 25.01 17.7 63.9 53 8 46.4
23:20 1018 30.06 847 25.01 17.9 64.3 50 7.4 45.4
23:25 1018 30.06 847 25.01 18.2 64.7 48 7.2 45
23:30 1018 30.06 847 25.01 18.3 65 48 7.2 44.9
23:35 1018 30.06 847 25.01 18.4 65.1 48 7.3 45.1
23:40 1018 30.06 847 25.01 18.3 65 49 7.5 45.4
23:45 1018 30.06 847 25.01 18.2 64.7 49 7.5 45.4
23:50 1018 30.06 847 25.01 18 64.5 50 7.7 45.9
23:55 1018 30.06 847 25.01 17.9 64.2 50 7.5 45.5
24:00 1018 30.06 847 25.01 17.9 64.3 50 7.5 45.5